sensor_id;sensor_type;location;lat;lon;timestamp;P1;durP1;ratioP1;P2;durP2;ratioP2
1400;SDS011;46518;48.842;8.926;2024-01-07T00:02:15;65.28;;;16.88;;
1400;SDS011;46518;48.842;8.926;2024-01-07T00:04:44;151.57;;;27.63;;
1400;SDS011;46518;48.842;8.926;2024-01-07T00:07:12;43.60;;;14.15;;
1400;SDS011;46518;48.842;8.926;2024-01-07T00:09:40;59.88;;;17.52;;
1400;SDS011;46518;48.842;8.926;2024-01-07T00:12:08;36.00;;;15.48;;
1400;SDS011;46518;48.842;8.926;2024-01-07T00:14:36;22.33;;;12.95;;
1400;SDS011;46518;48.842;8.926;2024-01-07T00:17:05;24.27;;;12.75;;
1400;SDS011;46518;48.842;8.926;2024-01-07T00:19:35;39.70;;;13.73;;
1400;SDS011;46518;48.842;8.926;2024-01-07T00:22:04;51.17;;;16.27;;
1400;SDS011;46518;48.842;8.926;2024-01-07T00:24:32;61.20;;;16.17;;
1400;SDS011;46518;48.842;8.926;2024-01-07T00:27:00;95.32;;;18.15;;
1400;SDS011;46518;48.842;8.926;2024-01-07T00:29:28;110.43;;;20.33;;
1400;SDS011;46518;48.842;8.926;2024-01-07T00:31:57;104.68;;;20.77;;
1400;SDS011;46518;48.842;8.926;2024-01-07T00:34:26;78.20;;;15.75;;
1400;SDS011;46518;48.842;8.926;2024-01-07T00:36:55;75.30;;;17.00;;
1400;SDS011;46518;48.842;8.926;2024-01-07T00:39:24;182.05;;;25.35;;
1400;SDS011;46518;48.842;8.926;2024-01-07T00:41:52;203.05;;;26.95;;
1400;SDS011;46518;48.842;8.926;2024-01-07T00:44:20;271.90;;;31.42;;
1400;SDS011;46518;48.842;8.926;2024-01-07T00:46:48;92.65;;;19.92;;
1400;SDS011;46518;48.842;8.926;2024-01-07T00:49:16;115.22;;;21.10;;
1400;SDS011;46518;48.842;8.926;2024-01-07T00:51:45;41.45;;;13.57;;
1400;SDS011;46518;48.842;8.926;2024-01-07T00:54:14;109.43;;;22.35;;
1400;SDS011;46518;48.842;8.926;2024-01-07T00:56:43;166.75;;;25.30;;
1400;SDS011;46518;48.842;8.926;2024-01-07T00:59:11;149.70;;;25.92;;
1400;SDS011;46518;48.842;8.926;2024-01-07T01:01:39;155.52;;;24.00;;
1400;SDS011;46518;48.842;8.926;2024-01-07T01:07:49;153.45;;;21.98;;
1400;SDS011;46518;48.842;8.926;2024-01-07T01:10:20;158.75;;;24.13;;
1400;SDS011;46518;48.842;8.926;2024-01-07T01:12:48;61.67;;;14.43;;
1400;SDS011;46518;48.842;8.926;2024-01-07T01:15:16;154.15;;;23.33;;
1400;SDS011;46518;48.842;8.926;2024-01-07T01:17:44;260.77;;;33.10;;
1400;SDS011;46518;48.842;8.926;2024-01-07T01:20:13;36.97;;;12.73;;
1400;SDS011;46518;48.842;8.926;2024-01-07T01:22:41;146.07;;;25.48;;
1400;SDS011;46518;48.842;8.926;2024-01-07T01:25:10;253.60;;;37.22;;
1400;SDS011;46518;48.842;8.926;2024-01-07T01:27:40;87.28;;;22.85;;
1400;SDS011;46518;48.842;8.926;2024-01-07T01:30:09;122.05;;;23.00;;
1400;SDS011;46518;48.842;8.926;2024-01-07T01:32:40;131.13;;;23.65;;
1400;SDS011;46518;48.842;8.926;2024-01-07T01:35:09;39.88;;;16.30;;
1400;SDS011;46518;48.842;8.926;2024-01-07T01:37:37;226.85;;;34.50;;
1400;SDS011;46518;48.842;8.926;2024-01-07T01:40:05;58.85;;;18.92;;
1400;SDS011;46518;48.842;8.926;2024-01-07T01:42:34;61.95;;;22.70;;
1400;SDS011;46518;48.842;8.926;2024-01-07T01:45:04;72.80;;;20.33;;
1400;SDS011;46518;48.842;8.926;2024-01-07T01:47:33;109.45;;;25.70;;
1400;SDS011;46518;48.842;8.926;2024-01-07T01:50:01;49.42;;;19.10;;
1400;SDS011;46518;48.842;8.926;2024-01-07T01:52:30;64.93;;;20.75;;
1400;SDS011;46518;48.842;8.926;2024-01-07T01:54:58;31.20;;;15.38;;
1400;SDS011;46518;48.842;8.926;2024-01-07T01:57:28;37.30;;;17.65;;
1400;SDS011;46518;48.842;8.926;2024-01-07T02:00:03;59.47;;;19.63;;
1400;SDS011;46518;48.842;8.926;2024-01-07T02:02:35;46.35;;;16.80;;
1400;SDS011;46518;48.842;8.926;2024-01-07T02:05:05;36.10;;;16.48;;
1400;SDS011;46518;48.842;8.926;2024-01-07T02:07:33;27.77;;;15.40;;
1400;SDS011;46518;48.842;8.926;2024-01-07T02:10:02;28.23;;;14.88;;
1400;SDS011;46518;48.842;8.926;2024-01-07T02:12:31;28.05;;;15.98;;
1400;SDS011;46518;48.842;8.926;2024-01-07T02:14:59;44.72;;;21.00;;
1400;SDS011;46518;48.842;8.926;2024-01-07T02:17:29;45.03;;;16.02;;
1400;SDS011;46518;48.842;8.926;2024-01-07T02:19:57;23.77;;;14.65;;
1400;SDS011;46518;48.842;8.926;2024-01-07T02:22:25;25.85;;;15.98;;
1400;SDS011;46518;48.842;8.926;2024-01-07T02:24:55;29.58;;;16.63;;
1400;SDS011;46518;48.842;8.926;2024-01-07T02:27:23;22.33;;;13.30;;
1400;SDS011;46518;48.842;8.926;2024-01-07T02:29:51;38.42;;;18.60;;
1400;SDS011;46518;48.842;8.926;2024-01-07T02:32:20;56.58;;;21.23;;
1400;SDS011;46518;48.842;8.926;2024-01-07T02:34:48;29.27;;;15.70;;
1400;SDS011;46518;48.842;8.926;2024-01-07T02:37:16;34.30;;;15.70;;
1400;SDS011;46518;48.842;8.926;2024-01-07T02:39:44;36.40;;;18.65;;
1400;SDS011;46518;48.842;8.926;2024-01-07T02:42:27;29.25;;;15.25;;
1400;SDS011;46518;48.842;8.926;2024-01-07T02:44:57;27.58;;;15.10;;
1400;SDS011;46518;48.842;8.926;2024-01-07T02:47:25;86.97;;;22.73;;
1400;SDS011;46518;48.842;8.926;2024-01-07T02:49:55;85.93;;;23.23;;
1400;SDS011;46518;48.842;8.926;2024-01-07T02:52:23;41.50;;;18.65;;
1400;SDS011;46518;48.842;8.926;2024-01-07T02:54:51;31.00;;;18.15;;
1400;SDS011;46518;48.842;8.926;2024-01-07T02:57:19;48.38;;;19.42;;
1400;SDS011;46518;48.842;8.926;2024-01-07T02:59:49;25.77;;;15.80;;
1400;SDS011;46518;48.842;8.926;2024-01-07T03:02:17;48.25;;;20.20;;
1400;SDS011;46518;48.842;8.926;2024-01-07T03:04:45;35.13;;;18.65;;
1400;SDS011;46518;48.842;8.926;2024-01-07T03:07:13;48.53;;;19.08;;
1400;SDS011;46518;48.842;8.926;2024-01-07T03:09:42;39.58;;;19.35;;
1400;SDS011;46518;48.842;8.926;2024-01-07T03:12:14;45.33;;;22.85;;
1400;SDS011;46518;48.842;8.926;2024-01-07T03:14:42;37.67;;;18.92;;
1400;SDS011;46518;48.842;8.926;2024-01-07T03:17:12;34.40;;;18.85;;
1400;SDS011;46518;48.842;8.926;2024-01-07T03:19:41;33.63;;;20.95;;
1400;SDS011;46518;48.842;8.926;2024-01-07T03:22:09;30.83;;;16.98;;
1400;SDS011;46518;48.842;8.926;2024-01-07T03:24:38;32.20;;;18.58;;
1400;SDS011;46518;48.842;8.926;2024-01-07T03:27:06;30.17;;;17.92;;
1400;SDS011;46518;48.842;8.926;2024-01-07T03:29:34;34.33;;;20.10;;
1400;SDS011;46518;48.842;8.926;2024-01-07T03:32:02;39.88;;;23.40;;
1400;SDS011;46518;48.842;8.926;2024-01-07T03:34:32;33.63;;;19.60;;
1400;SDS011;46518;48.842;8.926;2024-01-07T03:37:02;33.55;;;20.50;;
1400;SDS011;46518;48.842;8.926;2024-01-07T03:39:31;31.42;;;18.42;;
1400;SDS011;46518;48.842;8.926;2024-01-07T03:42:00;36.78;;;20.90;;
1400;SDS011;46518;48.842;8.926;2024-01-07T03:47:21;28.92;;;17.83;;
1400;SDS011;46518;48.842;8.926;2024-01-07T03:49:51;25.52;;;16.05;;
1400;SDS011;46518;48.842;8.926;2024-01-07T03:52:19;32.75;;;20.00;;
1400;SDS011;46518;48.842;8.926;2024-01-07T03:54:49;29.20;;;19.23;;
1400;SDS011;46518;48.842;8.926;2024-01-07T03:57:17;34.03;;;19.15;;
1400;SDS011;46518;48.842;8.926;2024-01-07T03:59:45;26.88;;;17.17;;
1400;SDS011;46518;48.842;8.926;2024-01-07T04:02:14;25.98;;;16.60;;
1400;SDS011;46518;48.842;8.926;2024-01-07T04:04:43;26.60;;;17.50;;
1400;SDS011;46518;48.842;8.926;2024-01-07T04:07:12;32.75;;;20.20;;
1400;SDS011;46518;48.842;8.926;2024-01-07T04:09:42;26.98;;;17.80;;
1400;SDS011;46518;48.842;8.926;2024-01-07T04:12:11;31.55;;;17.20;;
1400;SDS011;46518;48.842;8.926;2024-01-07T04:14:39;29.15;;;17.77;;
1400;SDS011;46518;48.842;8.926;2024-01-07T04:17:07;32.55;;;19.65;;
1400;SDS011;46518;48.842;8.926;2024-01-07T04:19:36;30.10;;;18.45;;
1400;SDS011;46518;48.842;8.926;2024-01-07T04:22:05;24.00;;;16.00;;
1400;SDS011;46518;48.842;8.926;2024-01-07T04:24:35;29.70;;;17.77;;
1400;SDS011;46518;48.842;8.926;2024-01-07T04:27:03;26.05;;;16.85;;
1400;SDS011;46518;48.842;8.926;2024-01-07T04:29:32;23.25;;;14.45;;
1400;SDS011;46518;48.842;8.926;2024-01-07T04:32:00;27.23;;;16.58;;
1400;SDS011;46518;48.842;8.926;2024-01-07T04:34:28;28.58;;;16.33;;
1400;SDS011;46518;48.842;8.926;2024-01-07T04:36:57;25.45;;;17.33;;
1400;SDS011;46518;48.842;8.926;2024-01-07T04:39:25;34.38;;;16.95;;
1400;SDS011;46518;48.842;8.926;2024-01-07T04:41:55;23.90;;;15.85;;
1400;SDS011;46518;48.842;8.926;2024-01-07T04:44:23;23.92;;;15.32;;
1400;SDS011;46518;48.842;8.926;2024-01-07T04:46:51;24.17;;;14.73;;
1400;SDS011;46518;48.842;8.926;2024-01-07T04:49:19;22.73;;;14.00;;
1400;SDS011;46518;48.842;8.926;2024-01-07T04:51:47;24.02;;;15.75;;
1400;SDS011;46518;48.842;8.926;2024-01-07T04:54:15;28.40;;;15.73;;
1400;SDS011;46518;48.842;8.926;2024-01-07T04:56:45;24.83;;;16.40;;
1400;SDS011;46518;48.842;8.926;2024-01-07T04:59:15;27.98;;;15.98;;
1400;SDS011;46518;48.842;8.926;2024-01-07T05:01:43;24.38;;;14.60;;
1400;SDS011;46518;48.842;8.926;2024-01-07T05:04:11;25.30;;;17.02;;
1400;SDS011;46518;48.842;8.926;2024-01-07T05:06:40;27.50;;;17.38;;
1400;SDS011;46518;48.842;8.926;2024-01-07T05:09:08;26.45;;;15.27;;
1400;SDS011;46518;48.842;8.926;2024-01-07T05:11:39;23.33;;;15.55;;
1400;SDS011;46518;48.842;8.926;2024-01-07T05:14:10;28.75;;;17.55;;
1400;SDS011;46518;48.842;8.926;2024-01-07T05:16:40;25.35;;;16.27;;
1400;SDS011;46518;48.842;8.926;2024-01-07T05:19:08;26.80;;;17.90;;
1400;SDS011;46518;48.842;8.926;2024-01-07T05:21:39;25.80;;;16.45;;
1400;SDS011;46518;48.842;8.926;2024-01-07T05:24:07;26.30;;;17.05;;
1400;SDS011;46518;48.842;8.926;2024-01-07T05:26:37;23.67;;;15.88;;
1400;SDS011;46518;48.842;8.926;2024-01-07T05:29:06;22.75;;;15.50;;
1400;SDS011;46518;48.842;8.926;2024-01-07T05:31:34;22.67;;;14.63;;
1400;SDS011;46518;48.842;8.926;2024-01-07T05:34:07;21.08;;;14.23;;
1400;SDS011;46518;48.842;8.926;2024-01-07T05:36:36;25.50;;;15.75;;
1400;SDS011;46518;48.842;8.926;2024-01-07T05:39:04;24.00;;;14.13;;
1400;SDS011;46518;48.842;8.926;2024-01-07T05:41:33;24.70;;;16.65;;
1400;SDS011;46518;48.842;8.926;2024-01-07T05:44:06;28.65;;;16.85;;
1400;SDS011;46518;48.842;8.926;2024-01-07T05:46:37;20.05;;;13.48;;
1400;SDS011;46518;48.842;8.926;2024-01-07T05:49:07;20.02;;;13.75;;
1400;SDS011;46518;48.842;8.926;2024-01-07T05:51:38;22.00;;;13.88;;
1400;SDS011;46518;48.842;8.926;2024-01-07T05:54:07;24.42;;;15.25;;
1400;SDS011;46518;48.842;8.926;2024-01-07T05:56:38;21.35;;;14.00;;
1400;SDS011;46518;48.842;8.926;2024-01-07T05:59:07;21.92;;;14.52;;
1400;SDS011;46518;48.842;8.926;2024-01-07T06:01:35;17.58;;;12.80;;
1400;SDS011;46518;48.842;8.926;2024-01-07T06:04:03;22.20;;;15.07;;
1400;SDS011;46518;48.842;8.926;2024-01-07T06:06:33;23.13;;;15.20;;
1400;SDS011;46518;48.842;8.926;2024-01-07T06:09:02;23.88;;;15.35;;
1400;SDS011;46518;48.842;8.926;2024-01-07T06:11:31;23.60;;;16.58;;
1400;SDS011;46518;48.842;8.926;2024-01-07T06:13:59;25.10;;;15.30;;
1400;SDS011;46518;48.842;8.926;2024-01-07T06:16:27;23.58;;;14.60;;
1400;SDS011;46518;48.842;8.926;2024-01-07T06:18:55;22.13;;;14.98;;
1400;SDS011;46518;48.842;8.926;2024-01-07T06:21:24;29.73;;;16.27;;
1400;SDS011;46518;48.842;8.926;2024-01-07T06:23:53;22.98;;;16.70;;
1400;SDS011;46518;48.842;8.926;2024-01-07T06:26:21;22.95;;;16.98;;
1400;SDS011;46518;48.842;8.926;2024-01-07T06:28:49;25.95;;;18.15;;
1400;SDS011;46518;48.842;8.926;2024-01-07T06:31:17;22.95;;;14.00;;
1400;SDS011;46518;48.842;8.926;2024-01-07T06:33:46;25.52;;;16.67;;
1400;SDS011;46518;48.842;8.926;2024-01-07T06:36:14;24.60;;;16.05;;
1400;SDS011;46518;48.842;8.926;2024-01-07T06:38:42;22.38;;;15.93;;
1400;SDS011;46518;48.842;8.926;2024-01-07T06:41:12;24.08;;;15.90;;
1400;SDS011;46518;48.842;8.926;2024-01-07T06:43:40;26.27;;;14.90;;
1400;SDS011;46518;48.842;8.926;2024-01-07T06:46:09;22.92;;;15.10;;
1400;SDS011;46518;48.842;8.926;2024-01-07T06:48:38;21.55;;;18.27;;
1400;SDS011;46518;48.842;8.926;2024-01-07T06:51:11;24.10;;;16.48;;
1400;SDS011;46518;48.842;8.926;2024-01-07T06:53:40;23.02;;;17.00;;
1400;SDS011;46518;48.842;8.926;2024-01-07T06:56:08;23.40;;;16.38;;
1400;SDS011;46518;48.842;8.926;2024-01-07T06:58:38;29.25;;;18.65;;
1400;SDS011;46518;48.842;8.926;2024-01-07T07:01:07;25.00;;;19.20;;
1400;SDS011;46518;48.842;8.926;2024-01-07T07:03:35;22.75;;;15.68;;
1400;SDS011;46518;48.842;8.926;2024-01-07T07:06:04;29.10;;;20.30;;
1400;SDS011;46518;48.842;8.926;2024-01-07T07:08:32;21.00;;;15.23;;
1400;SDS011;46518;48.842;8.926;2024-01-07T07:11:00;22.20;;;14.73;;
1400;SDS011;46518;48.842;8.926;2024-01-07T07:13:28;25.52;;;18.38;;
1400;SDS011;46518;48.842;8.926;2024-01-07T07:15:58;27.58;;;17.98;;
1400;SDS011;46518;48.842;8.926;2024-01-07T07:18:26;26.23;;;19.30;;
1400;SDS011;46518;48.842;8.926;2024-01-07T07:20:55;22.02;;;16.75;;
1400;SDS011;46518;48.842;8.926;2024-01-07T07:23:26;23.90;;;17.55;;
1400;SDS011;46518;48.842;8.926;2024-01-07T07:25:54;29.60;;;20.05;;
1400;SDS011;46518;48.842;8.926;2024-01-07T07:28:22;26.83;;;19.58;;
1400;SDS011;46518;48.842;8.926;2024-01-07T07:30:51;26.90;;;19.80;;
1400;SDS011;46518;48.842;8.926;2024-01-07T07:33:21;26.35;;;16.65;;
1400;SDS011;46518;48.842;8.926;2024-01-07T07:35:51;22.58;;;16.05;;
1400;SDS011;46518;48.842;8.926;2024-01-07T07:38:19;25.42;;;19.40;;
1400;SDS011;46518;48.842;8.926;2024-01-07T07:40:50;26.15;;;18.58;;
1400;SDS011;46518;48.842;8.926;2024-01-07T07:43:20;22.73;;;18.13;;
1400;SDS011;46518;48.842;8.926;2024-01-07T07:45:48;26.27;;;18.42;;
1400;SDS011;46518;48.842;8.926;2024-01-07T07:48:16;26.70;;;19.15;;
1400;SDS011;46518;48.842;8.926;2024-01-07T07:50:49;23.25;;;15.85;;
1400;SDS011;46518;48.842;8.926;2024-01-07T07:53:17;25.08;;;18.88;;
1400;SDS011;46518;48.842;8.926;2024-01-07T07:55:46;22.60;;;15.15;;
1400;SDS011;46518;48.842;8.926;2024-01-07T07:58:14;21.10;;;16.20;;
1400;SDS011;46518;48.842;8.926;2024-01-07T08:00:42;23.85;;;16.13;;
1400;SDS011;46518;48.842;8.926;2024-01-07T08:03:11;24.02;;;16.50;;
1400;SDS011;46518;48.842;8.926;2024-01-07T08:05:39;23.23;;;16.40;;
1400;SDS011;46518;48.842;8.926;2024-01-07T08:08:10;23.65;;;16.38;;
1400;SDS011;46518;48.842;8.926;2024-01-07T08:10:38;18.63;;;13.02;;
1400;SDS011;46518;48.842;8.926;2024-01-07T08:13:06;21.15;;;14.80;;
1400;SDS011;46518;48.842;8.926;2024-01-07T08:15:37;20.75;;;15.25;;
1400;SDS011;46518;48.842;8.926;2024-01-07T08:18:06;23.08;;;15.05;;
1400;SDS011;46518;48.842;8.926;2024-01-07T08:20:34;19.25;;;13.88;;
1400;SDS011;46518;48.842;8.926;2024-01-07T08:23:03;19.23;;;12.38;;
1400;SDS011;46518;48.842;8.926;2024-01-07T08:25:32;19.73;;;13.75;;
1400;SDS011;46518;48.842;8.926;2024-01-07T08:28:01;17.88;;;13.63;;
1400;SDS011;46518;48.842;8.926;2024-01-07T08:30:30;21.50;;;13.73;;
1400;SDS011;46518;48.842;8.926;2024-01-07T08:32:58;23.40;;;14.38;;
1400;SDS011;46518;48.842;8.926;2024-01-07T08:35:27;17.23;;;13.20;;
1400;SDS011;46518;48.842;8.926;2024-01-07T08:37:55;20.38;;;13.02;;
1400;SDS011;46518;48.842;8.926;2024-01-07T08:40:24;19.27;;;13.18;;
1400;SDS011;46518;48.842;8.926;2024-01-07T08:42:53;18.15;;;10.85;;
1400;SDS011;46518;48.842;8.926;2024-01-07T08:45:22;13.15;;;11.63;;
1400;SDS011;46518;48.842;8.926;2024-01-07T08:47:50;18.67;;;12.95;;
1400;SDS011;46518;48.842;8.926;2024-01-07T08:50:18;17.80;;;11.88;;
1400;SDS011;46518;48.842;8.926;2024-01-07T08:52:48;14.55;;;11.65;;
1400;SDS011;46518;48.842;8.926;2024-01-07T08:55:17;17.15;;;11.98;;
1400;SDS011;46518;48.842;8.926;2024-01-07T08:57:45;13.90;;;10.95;;
1400;SDS011;46518;48.842;8.926;2024-01-07T09:00:18;14.60;;;10.68;;
1400;SDS011;46518;48.842;8.926;2024-01-07T09:02:46;14.50;;;10.57;;
1400;SDS011;46518;48.842;8.926;2024-01-07T09:05:14;16.30;;;11.38;;
1400;SDS011;46518;48.842;8.926;2024-01-07T09:07:43;13.90;;;10.85;;
1400;SDS011;46518;48.842;8.926;2024-01-07T09:10:11;13.50;;;10.05;;
1400;SDS011;46518;48.842;8.926;2024-01-07T09:12:40;11.68;;;9.18;;
1400;SDS011;46518;48.842;8.926;2024-01-07T09:15:09;11.70;;;9.55;;
1400;SDS011;46518;48.842;8.926;2024-01-07T09:17:39;14.30;;;10.68;;
1400;SDS011;46518;48.842;8.926;2024-01-07T09:20:07;17.80;;;11.02;;
1400;SDS011;46518;48.842;8.926;2024-01-07T09:22:36;13.23;;;9.70;;
1400;SDS011;46518;48.842;8.926;2024-01-07T09:25:05;14.05;;;10.25;;
1400;SDS011;46518;48.842;8.926;2024-01-07T09:27:34;17.15;;;11.77;;
1400;SDS011;46518;48.842;8.926;2024-01-07T09:30:02;15.93;;;10.82;;
1400;SDS011;46518;48.842;8.926;2024-01-07T09:32:31;15.90;;;11.13;;
1400;SDS011;46518;48.842;8.926;2024-01-07T09:35:05;14.30;;;10.35;;
1400;SDS011;46518;48.842;8.926;2024-01-07T09:37:34;17.30;;;11.27;;
1400;SDS011;46518;48.842;8.926;2024-01-07T09:40:02;15.57;;;11.00;;
1400;SDS011;46518;48.842;8.926;2024-01-07T09:42:33;13.93;;;11.10;;
1400;SDS011;46518;48.842;8.926;2024-01-07T09:45:02;18.00;;;12.18;;
1400;SDS011;46518;48.842;8.926;2024-01-07T09:47:31;20.52;;;14.73;;
1400;SDS011;46518;48.842;8.926;2024-01-07T09:50:00;22.67;;;15.00;;
1400;SDS011;46518;48.842;8.926;2024-01-07T09:52:29;16.98;;;12.93;;
1400;SDS011;46518;48.842;8.926;2024-01-07T09:54:58;16.63;;;12.05;;
1400;SDS011;46518;48.842;8.926;2024-01-07T09:57:27;14.40;;;12.23;;
1400;SDS011;46518;48.842;8.926;2024-01-07T09:59:56;15.77;;;10.90;;
1400;SDS011;46518;48.842;8.926;2024-01-07T10:02:24;15.98;;;12.02;;
1400;SDS011;46518;48.842;8.926;2024-01-07T10:04:52;17.15;;;12.90;;
1400;SDS011;46518;48.842;8.926;2024-01-07T10:07:20;16.98;;;12.52;;
1400;SDS011;46518;48.842;8.926;2024-01-07T10:09:50;15.02;;;11.25;;
1400;SDS011;46518;48.842;8.926;2024-01-07T10:12:23;16.92;;;11.85;;
1400;SDS011;46518;48.842;8.926;2024-01-07T10:14:52;17.73;;;12.20;;
1400;SDS011;46518;48.842;8.926;2024-01-07T10:17:20;17.63;;;12.65;;
1400;SDS011;46518;48.842;8.926;2024-01-07T10:19:54;16.27;;;11.40;;
1400;SDS011;46518;48.842;8.926;2024-01-07T10:22:22;13.75;;;10.48;;
1400;SDS011;46518;48.842;8.926;2024-01-07T10:24:52;11.82;;;9.77;;
1400;SDS011;46518;48.842;8.926;2024-01-07T10:27:22;14.02;;;9.85;;
1400;SDS011;46518;48.842;8.926;2024-01-07T10:29:50;14.20;;;10.07;;
1400;SDS011;46518;48.842;8.926;2024-01-07T10:32:22;12.98;;;10.35;;
1400;SDS011;46518;48.842;8.926;2024-01-07T10:34:50;13.82;;;9.60;;
1400;SDS011;46518;48.842;8.926;2024-01-07T10:37:25;12.40;;;9.38;;
1400;SDS011;46518;48.842;8.926;2024-01-07T10:39:56;17.85;;;12.88;;
1400;SDS011;46518;48.842;8.926;2024-01-07T10:42:30;15.90;;;11.52;;
1400;SDS011;46518;48.842;8.926;2024-01-07T10:44:59;15.52;;;11.10;;
1400;SDS011;46518;48.842;8.926;2024-01-07T10:47:31;14.85;;;9.55;;
1400;SDS011;46518;48.842;8.926;2024-01-07T10:49:59;13.63;;;10.13;;
1400;SDS011;46518;48.842;8.926;2024-01-07T10:52:30;18.33;;;11.70;;
1400;SDS011;46518;48.842;8.926;2024-01-07T10:58:24;12.68;;;10.18;;
1400;SDS011;46518;48.842;8.926;2024-01-07T11:04:13;13.35;;;9.02;;
1400;SDS011;46518;48.842;8.926;2024-01-07T11:06:49;11.98;;;8.65;;
1400;SDS011;46518;48.842;8.926;2024-01-07T11:09:23;12.82;;;10.38;;
1400;SDS011;46518;48.842;8.926;2024-01-07T11:12:00;10.95;;;8.70;;
1400;SDS011;46518;48.842;8.926;2024-01-07T11:14:37;12.18;;;8.60;;
1400;SDS011;46518;48.842;8.926;2024-01-07T11:17:06;8.95;;;7.03;;
1400;SDS011;46518;48.842;8.926;2024-01-07T11:19:35;9.20;;;7.82;;
1400;SDS011;46518;48.842;8.926;2024-01-07T11:22:22;9.55;;;7.28;;
1400;SDS011;46518;48.842;8.926;2024-01-07T11:24:57;7.97;;;6.30;;
1400;SDS011;46518;48.842;8.926;2024-01-07T11:27:28;8.02;;;6.63;;
1400;SDS011;46518;48.842;8.926;2024-01-07T11:30:01;9.68;;;7.60;;
1400;SDS011;46518;48.842;8.926;2024-01-07T11:32:32;9.50;;;6.65;;
1400;SDS011;46518;48.842;8.926;2024-01-07T11:35:01;9.43;;;6.70;;
1400;SDS011;46518;48.842;8.926;2024-01-07T11:37:31;9.77;;;7.68;;
1400;SDS011;46518;48.842;8.926;2024-01-07T11:39:59;9.77;;;6.82;;
1400;SDS011;46518;48.842;8.926;2024-01-07T11:42:28;9.07;;;7.55;;
1400;SDS011;46518;48.842;8.926;2024-01-07T11:44:57;11.25;;;7.28;;
1400;SDS011;46518;48.842;8.926;2024-01-07T11:47:26;10.85;;;8.02;;
1400;SDS011;46518;48.842;8.926;2024-01-07T11:49:55;11.85;;;6.60;;
1400;SDS011;46518;48.842;8.926;2024-01-07T11:52:23;12.73;;;7.85;;
1400;SDS011;46518;48.842;8.926;2024-01-07T11:54:51;9.82;;;7.57;;
1400;SDS011;46518;48.842;8.926;2024-01-07T11:57:20;10.63;;;7.30;;
1400;SDS011;46518;48.842;8.926;2024-01-07T11:59:48;14.80;;;8.98;;
1400;SDS011;46518;48.842;8.926;2024-01-07T12:02:16;10.25;;;8.05;;
1400;SDS011;46518;48.842;8.926;2024-01-07T12:04:45;8.93;;;6.68;;
1400;SDS011;46518;48.842;8.926;2024-01-07T12:07:17;11.55;;;9.50;;
1400;SDS011;46518;48.842;8.926;2024-01-07T12:09:46;9.90;;;7.70;;
1400;SDS011;46518;48.842;8.926;2024-01-07T12:12:23;9.10;;;7.35;;
1400;SDS011;46518;48.842;8.926;2024-01-07T12:14:52;12.98;;;8.20;;
1400;SDS011;46518;48.842;8.926;2024-01-07T12:17:20;11.68;;;8.30;;
1400;SDS011;46518;48.842;8.926;2024-01-07T12:19:50;10.95;;;7.95;;
1400;SDS011;46518;48.842;8.926;2024-01-07T12:22:19;12.80;;;9.90;;
1400;SDS011;46518;48.842;8.926;2024-01-07T12:27:41;12.02;;;8.75;;
1400;SDS011;46518;48.842;8.926;2024-01-07T12:30:11;9.38;;;8.13;;
1400;SDS011;46518;48.842;8.926;2024-01-07T12:32:40;12.35;;;8.77;;
1400;SDS011;46518;48.842;8.926;2024-01-07T12:35:09;16.35;;;11.15;;
1400;SDS011;46518;48.842;8.926;2024-01-07T12:37:38;12.77;;;8.68;;
1400;SDS011;46518;48.842;8.926;2024-01-07T12:40:07;11.60;;;9.40;;
1400;SDS011;46518;48.842;8.926;2024-01-07T12:42:38;12.10;;;7.47;;
1400;SDS011;46518;48.842;8.926;2024-01-07T12:45:11;20.27;;;15.50;;
1400;SDS011;46518;48.842;8.926;2024-01-07T12:47:42;42.10;;;29.35;;
1400;SDS011;46518;48.842;8.926;2024-01-07T12:50:12;21.58;;;15.65;;
1400;SDS011;46518;48.842;8.926;2024-01-07T12:52:42;21.23;;;15.40;;
1400;SDS011;46518;48.842;8.926;2024-01-07T12:55:13;11.70;;;9.40;;
1400;SDS011;46518;48.842;8.926;2024-01-07T12:57:42;15.45;;;12.13;;
1400;SDS011;46518;48.842;8.926;2024-01-07T13:00:10;15.20;;;12.25;;
1400;SDS011;46518;48.842;8.926;2024-01-07T13:02:39;15.50;;;10.63;;
1400;SDS011;46518;48.842;8.926;2024-01-07T13:05:07;16.67;;;13.40;;
1400;SDS011;46518;48.842;8.926;2024-01-07T13:07:38;10.38;;;9.32;;
1400;SDS011;46518;48.842;8.926;2024-01-07T13:10:06;11.60;;;9.75;;
1400;SDS011;46518;48.842;8.926;2024-01-07T13:12:36;13.00;;;9.80;;
1400;SDS011;46518;48.842;8.926;2024-01-07T13:15:14;13.10;;;10.75;;
1400;SDS011;46518;48.842;8.926;2024-01-07T13:17:44;14.25;;;10.85;;
1400;SDS011;46518;48.842;8.926;2024-01-07T13:20:12;18.23;;;13.20;;
1400;SDS011;46518;48.842;8.926;2024-01-07T13:22:41;12.15;;;8.95;;
1400;SDS011;46518;48.842;8.926;2024-01-07T13:28:03;16.10;;;11.05;;
1400;SDS011;46518;48.842;8.926;2024-01-07T13:30:31;19.35;;;12.05;;
1400;SDS011;46518;48.842;8.926;2024-01-07T13:33:01;13.70;;;10.57;;
1400;SDS011;46518;48.842;8.926;2024-01-07T13:35:32;14.88;;;11.10;;
1400;SDS011;46518;48.842;8.926;2024-01-07T13:38:03;12.07;;;10.55;;
1400;SDS011;46518;48.842;8.926;2024-01-07T13:40:35;10.98;;;9.50;;
1400;SDS011;46518;48.842;8.926;2024-01-07T13:45:58;15.88;;;11.10;;
1400;SDS011;46518;48.842;8.926;2024-01-07T13:48:26;16.80;;;13.45;;
1400;SDS011;46518;48.842;8.926;2024-01-07T13:50:58;13.95;;;10.68;;
1400;SDS011;46518;48.842;8.926;2024-01-07T13:53:28;15.98;;;10.95;;
1400;SDS011;46518;48.842;8.926;2024-01-07T13:56:42;14.40;;;10.80;;
1400;SDS011;46518;48.842;8.926;2024-01-07T13:59:11;18.67;;;11.75;;
1400;SDS011;46518;48.842;8.926;2024-01-07T14:01:39;18.42;;;14.27;;
1400;SDS011;46518;48.842;8.926;2024-01-07T14:04:12;19.00;;;14.82;;
1400;SDS011;46518;48.842;8.926;2024-01-07T14:06:41;18.33;;;13.68;;
1400;SDS011;46518;48.842;8.926;2024-01-07T14:09:12;17.27;;;13.63;;
1400;SDS011;46518;48.842;8.926;2024-01-07T14:11:41;15.27;;;13.25;;
1400;SDS011;46518;48.842;8.926;2024-01-07T14:14:09;15.18;;;11.43;;
1400;SDS011;46518;48.842;8.926;2024-01-07T14:16:37;15.70;;;11.20;;
1400;SDS011;46518;48.842;8.926;2024-01-07T14:19:08;17.95;;;12.93;;
1400;SDS011;46518;48.842;8.926;2024-01-07T14:21:37;18.73;;;13.40;;
1400;SDS011;46518;48.842;8.926;2024-01-07T14:24:06;18.60;;;14.20;;
1400;SDS011;46518;48.842;8.926;2024-01-07T14:26:36;17.75;;;14.32;;
1400;SDS011;46518;48.842;8.926;2024-01-07T14:29:04;19.45;;;13.90;;
1400;SDS011;46518;48.842;8.926;2024-01-07T14:31:43;18.95;;;13.77;;
1400;SDS011;46518;48.842;8.926;2024-01-07T14:34:12;17.45;;;12.38;;
1400;SDS011;46518;48.842;8.926;2024-01-07T14:36:41;16.52;;;12.20;;
1400;SDS011;46518;48.842;8.926;2024-01-07T14:39:10;18.63;;;14.10;;
1400;SDS011;46518;48.842;8.926;2024-01-07T14:41:42;16.75;;;13.57;;
1400;SDS011;46518;48.842;8.926;2024-01-07T14:44:11;19.95;;;15.27;;
1400;SDS011;46518;48.842;8.926;2024-01-07T14:46:42;16.15;;;12.43;;
1400;SDS011;46518;48.842;8.926;2024-01-07T14:49:10;16.05;;;12.77;;
1400;SDS011;46518;48.842;8.926;2024-01-07T14:51:40;18.92;;;13.48;;
1400;SDS011;46518;48.842;8.926;2024-01-07T14:54:08;19.38;;;13.65;;
1400;SDS011;46518;48.842;8.926;2024-01-07T14:56:36;18.25;;;13.80;;
1400;SDS011;46518;48.842;8.926;2024-01-07T14:59:06;18.08;;;15.40;;
1400;SDS011;46518;48.842;8.926;2024-01-07T15:01:34;17.30;;;12.50;;
1400;SDS011;46518;48.842;8.926;2024-01-07T15:04:03;16.33;;;12.60;;
1400;SDS011;46518;48.842;8.926;2024-01-07T15:06:38;17.35;;;13.50;;
1400;SDS011;46518;48.842;8.926;2024-01-07T15:09:07;17.55;;;12.45;;
1400;SDS011;46518;48.842;8.926;2024-01-07T15:11:36;16.80;;;14.27;;